Time;durP1;ratioP1;P1;durP2;ratioP2;P2;SDS_P1;SDS_P2;PMS_P1;PMS_P2;Temp;Humidity;BMP_temperature;BMP_pressure;BME280_temperature;BME280_humidity;BME280_pressure;Samples;Min_cycle;Max_cycle;Signal;HPM_P1;HPM_P2
2022/07/10 00:00:36;;;;;;;5.00;1.45;;;;;;;14.95;81.78;102666.38;5002256;28;20060;-68
2022/07/10 00:03:03;;;;;;;8.65;1.75;;;;;;;15.00;80.43;102667.88;5002093;28;20061;-68
2022/07/10 00:05:29;;;;;;;9.02;2.55;;;;;;;15.10;81.29;102667.41;5011787;28;20041;-68
2022/07/10 00:07:54;;;;;;;8.93;1.80;;;;;;;15.01;83.32;102666.09;5023262;28;20044;-69
2022/07/10 00:10:21;;;;;;;10.70;1.65;;;;;;;14.95;82.75;102667.25;5024015;28;20041;-69
2022/07/10 00:12:48;;;;;;;5.38;2.10;;;;;;;14.99;81.42;102660.78;5007418;28;20125;-69
2022/07/10 00:15:14;;;;;;;9.65;2.28;;;;;;;14.93;82.08;102665.63;5024371;28;20077;-67
2022/07/10 00:17:40;;;;;;;5.82;1.95;;;;;;;14.95;83.83;102663.72;5027422;28;20104;-67
2022/07/10 00:20:07;;;;;;;6.93;2.15;;;;;;;14.88;84.23;102662.31;5026792;28;20061;-68
2022/07/10 00:22:37;;;;;;;8.43;1.63;;;;;;;14.88;83.29;102665.84;5026530;28;20054;-68
2022/07/10 00:25:04;;;;;;;10.98;2.05;;;;;;;14.77;83.46;102666.41;5023220;28;20045;-68
2022/07/10 00:27:30;;;;;;;7.28;1.45;;;;;;;14.86;83.41;102662.41;5034790;28;20048;-68
2022/07/10 00:29:56;;;;;;;9.63;1.98;;;;;;;14.85;82.47;102666.00;5022877;28;20053;-69
2022/07/10 00:32:21;;;;;;;12.05;2.42;;;;;;;14.87;82.25;102660.56;5020257;28;20049;-68
2022/07/10 00:34:46;;;;;;;10.25;2.45;;;;;;;14.86;82.82;102665.09;5018751;28;20039;-68
2022/07/10 00:37:12;;;;;;;14.52;2.00;;;;;;;14.76;83.09;102667.38;5002245;28;20812;-69
2022/07/10 00:39:37;;;;;;;6.28;1.83;;;;;;;14.89;82.76;102664.03;5002083;28;20042;-69
2022/07/10 00:42:11;;;;;;;9.50;1.83;;;;;;;14.90;82.97;102658.56;5015943;28;20057;-67
2022/07/10 00:44:37;;;;;;;6.20;1.65;;;;;;;14.83;83.61;102653.63;5003143;28;20082;-69
2022/07/10 00:47:05;;;;;;;4.68;1.98;;;;;;;14.97;83.88;102651.94;5003270;28;20052;-68
2022/07/10 00:49:31;;;;;;;5.78;1.83;;;;;;;14.92;84.00;102639.72;5002366;28;20037;-69
2022/07/10 00:51:59;;;;;;;7.43;1.92;;;;;;;14.87;84.08;102641.78;5013855;28;20093;-68
2022/07/10 00:54:25;;;;;;;7.10;2.30;;;;;;;14.89;83.59;102635.34;5021709;28;20041;-68
2022/07/10 00:56:51;;;;;;;9.90;1.67;;;;;;;14.81;83.87;102634.91;5001752;28;20791;-69
2022/07/10 00:59:18;;;;;;;18.55;3.03;;;;;;;14.79;84.42;102636.78;5006400;28;20037;-69
2022/07/10 01:01:44;;;;;;;5.53;1.60;;;;;;;14.84;84.17;102636.53;5008270;28;20093;-69
2022/07/10 01:04:09;;;;;;;9.38;1.52;;;;;;;14.88;83.98;102635.44;4999340;28;20081;-67
2022/07/10 01:06:35;;;;;;;5.60;1.98;;;;;;;14.85;83.99;102643.66;5015798;28;20030;-69
2022/07/10 01:09:01;;;;;;;9.77;1.88;;;;;;;14.76;84.55;102631.59;4998212;28;20046;-69
2022/07/10 01:11:26;;;;;;;9.50;1.83;;;;;;;14.82;84.91;102628.59;4999075;28;20532;-67
2022/07/10 01:13:57;;;;;;;10.25;1.83;;;;;;;14.77;84.64;102626.13;5010491;28;20061;-68
2022/07/10 01:16:23;;;;;;;8.30;1.70;;;;;;;14.87;84.34;102622.97;5020291;28;20037;-68
2022/07/10 01:18:49;;;;;;;8.25;1.92;;;;;;;14.73;85.26;102619.19;5016443;28;20062;-68
2022/07/10 01:21:28;;;;;;;7.07;1.80;;;;;;;14.71;84.92;102612.16;5000940;28;20035;-68
2022/07/10 01:23:55;;;;;;;8.02;2.13;;;;;;;14.55;86.11;102614.75;5018598;28;20033;-67
2022/07/10 01:26:24;;;;;;;3.25;2.15;;;;;;;14.53;86.54;102618.47;5017780;28;20108;-68
2022/07/10 01:28:54;;;;;;;9.18;1.98;;;;;;;14.51;86.75;102618.56;5019295;28;20030;-67
2022/07/10 01:31:24;;;;;;;4.80;1.77;;;;;;;14.39;87.14;102609.28;5019273;28;20052;-68
2022/07/10 01:33:50;;;;;;;6.18;1.98;;;;;;;14.34;88.08;102611.34;5018063;28;20038;-68
2022/07/10 01:36:20;;;;;;;14.20;2.35;;;;;;;14.32;86.86;102612.38;5016759;28;20056;-67
2022/07/10 01:38:47;;;;;;;4.45;1.85;;;;;;;14.13;88.68;102618.66;4998381;28;20073;-69
2022/07/10 01:41:12;;;;;;;7.35;2.20;;;;;;;13.99;88.93;102605.91;5000001;28;20049;-69
2022/07/10 01:43:42;;;;;;;5.47;2.15;;;;;;;13.88;90.27;102602.91;5003356;28;20088;-68
2022/07/10 01:46:10;;;;;;;8.55;2.10;;;;;;;13.92;89.57;102600.94;5006126;28;20122;-68
2022/07/10 01:48:37;;;;;;;7.82;2.40;;;;;;;13.80;89.93;102607.75;4996240;28;20050;-68
2022/07/10 01:51:02;;;;;;;13.07;2.72;;;;;;;13.76;90.66;102611.56;5011629;28;20094;-69
2022/07/10 01:53:28;;;;;;;7.75;2.40;;;;;;;13.77;90.48;102607.91;5003760;28;20116;-68
2022/07/10 01:55:53;;;;;;;4.70;1.98;;;;;;;13.65;90.99;102608.50;5003551;28;20045;-68
2022/07/10 01:58:18;;;;;;;8.18;2.20;;;;;;;13.56;91.69;102606.28;4995672;28;20057;-69
2022/07/10 02:00:44;;;;;;;8.52;1.98;;;;;;;13.61;91.58;102601.56;5006618;28;20046;-69
2022/07/10 02:05:54;;;;;;;4.15;2.30;;;;;;;13.68;91.91;102598.50;4997736;28;20034;-68
2022/07/10 02:08:19;;;;;;;6.25;1.98;;;;;;;13.81;91.58;102598.78;5005387;28;20465;-68
2022/07/10 02:10:45;;;;;;;7.15;2.03;;;;;;;13.76;91.87;102592.78;5007381;28;20050;-68
2022/07/10 02:13:11;;;;;;;18.13;2.13;;;;;;;13.74;91.88;102590.16;4990975;28;20079;-69
2022/07/10 02:15:36;;;;;;;8.82;2.03;;;;;;;13.82;91.73;102592.47;4989607;28;20053;-69
2022/07/10 02:18:02;;;;;;;10.23;2.35;;;;;;;13.79;91.81;102587.25;4991291;28;20042;-68
2022/07/10 02:20:27;;;;;;;9.88;2.47;;;;;;;13.67;92.56;102588.72;4991508;28;20058;-69
2022/07/10 02:22:53;;;;;;;7.45;2.05;;;;;;;13.81;92.11;102584.53;5008650;28;20038;-69
2022/07/10 02:25:18;;;;;;;10.07;2.05;;;;;;;13.88;92.28;102584.13;5005376;28;20034;-69
2022/07/10 02:27:44;;;;;;;5.53;1.83;;;;;;;13.89;92.54;102582.31;5003137;28;20050;-69
2022/07/10 02:30:09;;;;;;;5.65;1.75;;;;;;;13.93;93.03;102578.53;5008087;28;20045;-69
2022/07/10 02:32:35;;;;;;;12.48;2.67;;;;;;;13.96;93.31;102579.25;5009917;28;20049;-69
2022/07/10 02:35:00;;;;;;;12.25;2.30;;;;;;;13.98;92.00;102581.84;5010026;28;20052;-68
2022/07/10 02:37:26;;;;;;;10.05;2.47;;;;;;;14.15;92.09;102579.19;5012560;28;20045;-67
2022/07/10 02:39:51;;;;;;;10.80;2.13;;;;;;;14.15;92.66;102571.13;5011319;28;20053;-69
2022/07/10 02:42:17;;;;;;;5.45;2.67;;;;;;;14.14;90.81;102568.53;5011699;28;20038;-68
2022/07/10 02:44:42;;;;;;;3.55;1.92;;;;;;;14.10;91.43;102573.19;5011810;28;20540;-68
2022/07/10 02:47:08;;;;;;;5.80;2.33;;;;;;;14.02;91.15;102569.16;5011898;28;20065;-68
2022/07/10 02:49:33;;;;;;;8.82;2.25;;;;;;;14.00;91.08;102558.50;5011381;28;20053;-69
2022/07/10 02:51:58;;;;;;;8.90;2.63;;;;;;;13.83;92.28;102558.47;5000265;28;20050;-69
2022/07/10 02:54:24;;;;;;;7.10;1.80;;;;;;;13.76;92.99;102551.69;4993578;28;20053;-70
2022/07/10 02:56:50;;;;;;;7.53;2.00;;;;;;;13.68;92.86;102552.06;4998282;28;20038;-69
2022/07/10 02:59:18;;;;;;;5.55;2.10;;;;;;;13.68;92.93;102552.06;5011309;28;20045;-69
2022/07/10 03:01:44;;;;;;;13.18;2.38;;;;;;;13.63;93.19;102556.78;5009459;28;20049;-69
2022/07/10 03:04:09;;;;;;;7.32;2.15;;;;;;;13.59;93.76;102563.22;5008822;28;20049;-69
2022/07/10 03:06:35;;;;;;;14.82;2.67;;;;;;;13.77;92.69;102566.84;5010248;28;20536;-69
2022/07/10 03:09:00;;;;;;;9.00;2.25;;;;;;;13.74;92.96;102566.03;5011300;28;20391;-68
2022/07/10 03:11:25;;;;;;;4.78;2.10;;;;;;;13.78;93.55;102571.25;5011231;28;20592;-69
2022/07/10 03:13:51;;;;;;;6.38;2.50;;;;;;;13.85;92.79;102575.34;5009385;28;20038;-68
2022/07/10 03:16:17;;;;;;;9.52;1.83;;;;;;;13.87;92.79;102574.34;5009943;28;20042;-69
2022/07/10 03:18:42;;;;;;;7.47;2.33;;;;;;;13.93;93.39;102573.19;5011897;28;20042;-69
2022/07/10 03:21:08;;;;;;;9.02;2.53;;;;;;;13.98;93.20;102565.75;5012250;28;20041;-69
2022/07/10 03:23:33;;;;;;;7.10;2.40;;;;;;;14.06;92.61;102571.63;5010892;28;20049;-67
2022/07/10 03:25:59;;;;;;;5.43;2.38;;;;;;;14.03;91.69;102576.28;5009313;28;20050;-69
2022/07/10 03:28:24;;;;;;;8.68;2.95;;;;;;;14.08;92.01;102574.22;4992925;28;20032;-69
2022/07/10 03:30:50;;;;;;;6.97;2.22;;;;;;;14.14;90.67;102577.44;5010677;28;20049;-69
2022/07/10 03:33:16;;;;;;;11.45;2.42;;;;;;;14.17;90.01;102576.44;5011780;28;20046;-67
2022/07/10 03:35:41;;;;;;;9.60;2.10;;;;;;;14.18;90.44;102583.53;5010856;28;20038;-69
2022/07/10 03:38:06;;;;;;;13.73;2.88;;;;;;;14.17;89.99;102576.44;5011626;28;20062;-68
2022/07/10 03:40:32;;;;;;;9.00;2.90;;;;;;;14.14;89.94;102572.09;5010919;28;20041;-68
2022/07/10 03:42:57;;;;;;;6.13;2.72;;;;;;;14.22;90.02;102569.91;5010435;28;20499;-69
2022/07/10 03:45:23;;;;;;;10.82;2.38;;;;;;;14.22;89.54;102572.56;5010767;28;20052;-68
2022/07/10 03:47:49;;;;;;;8.25;2.10;;;;;;;14.23;89.94;102568.06;5006525;28;20049;-67
2022/07/10 03:50:15;;;;;;;15.27;2.50;;;;;;;14.29;89.77;102573.13;5009437;28;20038;-69
2022/07/10 03:52:41;;;;;;;5.20;2.53;;;;;;;14.33;90.25;102573.84;5008987;28;20038;-69
2022/07/10 03:55:07;;;;;;;11.35;1.90;;;;;;;14.33;89.59;102568.47;5010298;28;20042;-70
2022/07/10 04:00:16;;;;;;;5.30;1.77;;;;;;;14.40;89.21;102559.16;5008401;28;20165;-70
2022/07/10 04:02:41;;;;;;;3.83;1.50;;;;;;;14.45;89.10;102562.47;5010374;28;20042;-70
2022/07/10 04:05:08;;;;;;;7.30;2.00;;;;;;;14.51;89.13;102564.88;5009971;28;20038;-69
2022/07/10 04:07:34;;;;;;;10.20;2.83;;;;;;;14.54;88.71;102570.06;5010194;28;20037;-69
2022/07/10 04:10:00;;;;;;;8.73;2.15;;;;;;;14.58;88.09;102565.41;5009301;28;20046;-69
2022/07/10 04:12:26;;;;;;;8.02;1.70;;;;;;;14.74;88.42;102563.66;5010020;28;20042;-69
2022/07/10 04:14:51;;;;;;;6.95;1.80;;;;;;;14.88;87.50;102561.09;5009728;28;20101;-67
2022/07/10 04:17:18;;;;;;;11.30;1.83;;;;;;;14.81;86.95;102565.06;5009484;28;20053;-68
2022/07/10 04:19:46;;;;;;;6.78;1.85;;;;;;;14.84;86.80;102558.66;5009163;28;20041;-67
2022/07/10 04:22:12;;;;;;;5.15;1.83;;;;;;;14.81;87.18;102553.44;5009583;28;20097;-68
2022/07/10 04:24:38;;;;;;;3.72;1.88;;;;;;;14.85;87.12;102552.31;5009354;28;20045;-68
2022/07/10 04:27:04;;;;;;;13.20;2.47;;;;;;;14.96;87.61;102545.44;5009457;28;20034;-68
2022/07/10 04:29:29;;;;;;;9.95;2.40;;;;;;;14.98;86.24;102548.91;5010157;28;20796;-69
2022/07/10 04:31:55;;;;;;;5.15;1.65;;;;;;;15.02;86.01;102547.78;5010568;28;20049;-70
2022/07/10 04:34:20;;;;;;;5.97;1.83;;;;;;;14.96;86.22;102547.22;5009380;28;20045;-69
2022/07/10 04:36:46;;;;;;;9.98;1.90;;;;;;;14.93;87.08;102542.91;5010078;28;20071;-67
2022/07/10 04:39:11;;;;;;;6.28;2.10;;;;;;;14.98;86.42;102550.72;5008844;28;20125;-69
2022/07/10 04:41:36;;;;;;;7.03;2.15;;;;;;;15.08;86.28;102556.47;5008876;28;20053;-69
2022/07/10 04:44:02;;;;;;;9.65;2.35;;;;;;;14.99;85.95;102561.38;5008376;28;20045;-68
2022/07/10 04:46:27;;;;;;;6.25;1.80;;;;;;;15.01;86.79;102554.13;5008691;28;20044;-69
2022/07/10 04:48:53;;;;;;;4.93;1.45;;;;;;;15.05;86.94;102560.16;5007979;28;20049;-68
2022/07/10 04:51:18;;;;;;;5.60;1.85;;;;;;;15.01;86.30;102548.75;5007495;28;20092;-69
2022/07/10 04:53:44;;;;;;;8.40;2.00;;;;;;;15.14;87.44;102551.59;5007901;28;20509;-69
2022/07/10 04:56:09;;;;;;;7.35;2.03;;;;;;;15.19;86.45;102554.03;5008142;28;20038;-69
2022/07/10 04:58:35;;;;;;;7.70;2.05;;;;;;;15.09;86.71;102552.81;4988671;28;20042;-68
2022/07/10 05:01:01;;;;;;;7.45;1.90;;;;;;;15.27;86.69;102558.06;4989442;28;20038;-69
2022/07/10 05:03:28;;;;;;;9.30;2.35;;;;;;;15.31;85.78;102552.47;4987503;28;20834;-69
2022/07/10 05:05:54;;;;;;;11.25;3.67;;;;;;;15.36;87.19;102547.72;4989989;28;20046;-69
2022/07/10 05:08:19;;;;;;;11.68;2.95;;;;;;;15.46;85.34;102548.94;4988598;28;20117;-69
2022/07/10 05:10:45;;;;;;;7.60;2.22;;;;;;;15.50;86.44;102550.50;4987812;28;20034;-69
2022/07/10 05:13:11;;;;;;;6.68;1.70;;;;;;;15.46;86.34;102551.63;4987444;28;20073;-69
2022/07/10 05:15:37;;;;;;;10.75;2.83;;;;;;;15.46;85.51;102552.53;4986548;28;20053;-67
2022/07/10 05:18:04;;;;;;;4.90;1.23;;;;;;;15.66;85.26;102550.53;4987799;28;20104;-69
2022/07/10 05:20:29;;;;;;;12.82;2.88;;;;;;;15.62;85.09;102540.88;4988049;28;20076;-69
2022/07/10 05:22:55;;;;;;;7.93;1.98;;;;;;;15.36;85.47;102559.38;5001203;28;20038;-68
2022/07/10 05:25:21;;;;;;;7.53;1.52;;;;;;;15.45;85.22;102555.28;5007730;28;20037;-69
2022/07/10 05:27:46;;;;;;;13.45;2.08;;;;;;;15.35;85.87;102562.13;5006865;28;20144;-69
2022/07/10 05:30:12;;;;;;;5.10;1.98;;;;;;;15.40;85.96;102568.09;5006978;28;20053;-69
2022/07/10 05:32:44;;;;;;;12.77;1.70;;;;;;;15.24;86.43;102560.91;5006483;28;20030;-68
2022/07/10 05:35:11;;;;;;;6.80;2.33;;;;;;;15.20;86.84;102567.38;5006926;28;20042;-68
2022/07/10 05:37:36;;;;;;;8.32;1.65;;;;;;;15.23;87.13;102561.00;5006965;28;20049;-69
2022/07/10 05:40:02;;;;;;;11.38;1.77;;;;;;;15.23;86.96;102561.00;5007062;28;20038;-68
2022/07/10 05:42:27;;;;;;;7.32;1.55;;;;;;;15.29;86.67;102566.88;5006485;28;20114;-69
2022/07/10 05:44:53;;;;;;;10.07;1.95;;;;;;;15.35;86.90;102565.66;5005511;28;20042;-68
2022/07/10 05:47:19;;;;;;;11.77;2.38;;;;;;;15.40;86.95;102560.91;4996811;28;20068;-69
2022/07/10 05:49:44;;;;;;;8.13;2.33;;;;;;;15.45;86.15;102564.19;4997890;28;20038;-68
2022/07/10 05:52:10;;;;;;;6.63;1.80;;;;;;;15.63;86.86;102556.97;4994491;28;20034;-68
2022/07/10 05:54:35;;;;;;;6.63;1.92;;;;;;;15.83;84.85;102553.13;4990106;28;20034;-69
2022/07/10 05:57:01;;;;;;;6.13;2.53;;;;;;;15.91;84.92;102560.72;4997135;28;20117;-68
2022/07/10 05:59:26;;;;;;;4.53;1.85;;;;;;;15.88;84.80;102563.63;4984248;28;20046;-68
2022/07/10 06:01:51;;;;;;;9.98;1.70;;;;;;;15.94;84.10;102558.72;4981060;28;20050;-67
2022/07/10 06:04:17;;;;;;;4.57;1.77;;;;;;;15.91;84.81;102558.03;4980088;28;20038;-68
2022/07/10 06:06:46;;;;;;;7.60;2.20;;;;;;;16.08;83.77;102562.44;4985950;28;20033;-67
2022/07/10 06:09:11;;;;;;;9.10;1.90;;;;;;;15.99;84.08;102566.53;4970622;28;20046;-68
2022/07/10 06:11:37;;;;;;;17.08;2.33;;;;;;;15.78;84.86;102561.44;4994754;28;20041;-68
2022/07/10 06:14:03;;;;;;;9.82;1.92;;;;;;;15.87;84.61;102569.97;4996344;28;20467;-68
2022/07/10 06:16:28;;;;;;;6.70;2.35;;;;;;;15.94;84.77;102571.31;4988402;28;20089;-67
2022/07/10 06:18:54;;;;;;;9.05;2.38;;;;;;;16.13;84.67;102566.59;4989543;28;20038;-68
2022/07/10 06:21:21;;;;;;;12.77;2.28;;;;;;;16.05;85.16;102571.56;4992285;28;20038;-68
2022/07/10 06:23:47;;;;;;;8.18;1.83;;;;;;;15.89;85.14;102576.97;4994761;28;20038;-68
2022/07/10 06:26:13;;;;;;;8.68;1.90;;;;;;;15.87;85.66;102578.91;4994429;28;20747;-68
2022/07/10 06:28:39;;;;;;;7.45;1.95;;;;;;;15.95;85.82;102573.06;4993265;28;20038;-68
2022/07/10 06:31:05;;;;;;;7.53;1.80;;;;;;;15.98;86.46;102576.44;4992979;28;20797;-68
2022/07/10 06:33:32;;;;;;;9.48;2.50;;;;;;;16.13;85.99;102568.44;4998101;28;20049;-68
2022/07/10 06:35:57;;;;;;;4.57;1.45;;;;;;;16.07;84.84;102569.66;4987392;28;20050;-67
2022/07/10 06:38:23;;;;;;;10.90;2.15;;;;;;;16.19;84.83;102570.75;4984100;28;20045;-68
2022/07/10 06:40:49;;;;;;;8.68;2.22;;;;;;;16.07;84.90;102571.50;4983870;28;20123;-66
2022/07/10 06:43:18;;;;;;;11.40;2.28;;;;;;;15.88;85.35;102574.38;4983929;28;20049;-68
2022/07/10 06:45:44;;;;;;;8.95;2.83;;;;;;;15.85;86.46;102569.16;4983523;28;20107;-68
2022/07/10 06:48:10;;;;;;;9.80;2.63;;;;;;;15.97;86.44;102565.78;4982260;28;20061;-67
2022/07/10 06:50:36;;;;;;;4.22;2.20;;;;;;;15.84;87.26;102571.00;4985812;28;20046;-68
2022/07/10 06:53:02;;;;;;;9.05;2.00;;;;;;;15.77;87.26;102569.63;5003373;28;20042;-68
2022/07/10 06:55:28;;;;;;;5.28;1.85;;;;;;;15.61;89.08;102576.78;5003937;28;20033;-67
2022/07/10 06:57:54;;;;;;;10.07;2.05;;;;;;;15.72;88.57;102577.94;4988732;28;20491;-67
2022/07/10 07:00:21;;;;;;;7.85;2.30;;;;;;;15.86;87.34;102576.28;4982647;28;20185;-68
2022/07/10 07:02:46;;;;;;;6.72;2.05;;;;;;;15.93;88.06;102566.91;4987676;28;20072;-68
2022/07/10 07:05:13;;;;;;;14.07;2.13;;;;;;;16.02;87.68;102572.63;4985426;28;20034;-66
2022/07/10 07:07:38;;;;;;;8.95;2.17;;;;;;;15.93;88.14;102577.66;5001292;28;20033;-67
2022/07/10 07:10:05;;;;;;;17.70;2.58;;;;;;;15.77;89.52;102564.25;4991665;28;20042;-68
2022/07/10 07:12:31;;;;;;;5.68;2.00;;;;;;;15.69;91.14;102572.75;4986890;28;20867;-67
2022/07/10 07:14:59;;;;;;;6.80;2.08;;;;;;;15.39;95.79;102582.50;4997639;28;20049;-69
2022/07/10 07:17:33;;;;;;;6.47;1.67;;;;;;;15.12;99.83;102590.28;4988968;28;20061;-69
2022/07/10 07:25:28;;;;;;;8.38;2.50;;;;;;;15.13;100.00;102592.88;5005303;28;20042;-69
2022/07/10 07:27:53;;;;;;;10.43;2.85;;;;;;;15.22;100.00;102586.13;4997337;28;20045;-68
2022/07/10 07:30:19;;;;;;;4.30;2.20;;;;;;;15.12;100.00;102595.66;4985186;28;20057;-68
2022/07/10 07:32:48;;;;;;;13.05;3.08;;;;;;;15.01;100.00;102594.41;4999032;28;20509;-69
2022/07/10 07:35:18;;;;;;;9.82;3.38;;;;;;;15.07;100.00;102601.28;5001280;28;20077;-68
2022/07/10 07:37:46;;;;;;;8.57;2.97;;;;;;;15.10;100.00;102603.78;4984110;28;20038;-68
2022/07/10 07:40:25;;;;;;;6.93;3.33;;;;;;;15.31;100.00;102595.50;4994134;28;20504;-69
2022/07/10 07:42:53;;;;;;;11.13;3.05;;;;;;;15.23;100.00;102602.16;4988166;28;20863;-68
2022/07/10 07:45:19;;;;;;;11.23;3.20;;;;;;;15.36;100.00;102609.53;4999796;28;20487;-69
2022/07/10 07:47:50;;;;;;;8.35;3.78;;;;;;;15.63;100.00;102597.28;4982949;28;20046;-67
2022/07/10 07:50:21;;;;;;;12.68;3.35;;;;;;;15.84;100.00;102594.34;4993842;28;20413;-68
2022/07/10 07:52:49;;;;;;;8.70;3.28;;;;;;;15.66;100.00;102596.25;4999023;28;20057;-69
2022/07/10 07:55:16;;;;;;;7.25;2.85;;;;;;;15.82;100.00;102607.88;4987810;28;20042;-68
2022/07/10 07:57:45;;;;;;;5.75;2.92;;;;;;;15.49;100.00;102600.72;4995723;28;20033;-70
2022/07/10 08:00:12;;;;;;;12.52;3.13;;;;;;;15.37;100.00;102611.31;4999396;28;20041;-68
2022/07/10 08:02:38;;;;;;;10.45;3.15;;;;;;;15.45;100.00;102606.34;4999320;28;20038;-69
2022/07/10 08:05:06;;;;;;;6.20;3.28;;;;;;;15.34;100.00;102604.25;4998079;28;20046;-69
2022/07/10 08:07:36;;;;;;;18.45;3.50;;;;;;;15.51;100.00;102600.63;4984131;28;20125;-68
2022/07/10 08:10:03;;;;;;;11.48;4.55;;;;;;;15.37;100.00;102596.03;4986590;28;20538;-69
2022/07/10 08:12:29;;;;;;;9.30;4.03;;;;;;;15.33;100.00;102599.84;4987798;28;20072;-68
2022/07/10 08:14:55;;;;;;;11.55;4.13;;;;;;;15.43;100.00;102594.81;4998658;28;20050;-69
2022/07/10 08:17:21;;;;;;;14.88;4.22;;;;;;;15.40;100.00;102593.16;4997871;28;20035;-69
2022/07/10 08:19:47;;;;;;;10.07;4.55;;;;;;;15.66;100.00;102585.47;4990269;28;20061;-69
2022/07/10 08:22:12;;;;;;;7.35;4.00;;;;;;;15.97;100.00;102579.22;5001021;28;20117;-68
2022/07/10 08:24:38;;;;;;;8.90;3.97;;;;;;;16.33;100.00;102586.09;4994380;28;20042;-68
2022/07/10 08:27:06;;;;;;;10.23;3.53;;;;;;;16.12;100.00;102583.72;4989751;28;20060;-69
2022/07/10 08:29:31;;;;;;;11.43;4.10;;;;;;;16.06;100.00;102589.44;4991667;28;20130;-68
2022/07/10 08:31:56;;;;;;;10.90;3.80;;;;;;;16.10;100.00;102596.38;5001938;28;20042;-69
2022/07/10 08:34:25;;;;;;;8.98;3.30;;;;;;;16.15;100.00;102593.41;4995268;28;20054;-69
2022/07/10 08:36:50;;;;;;;10.88;3.40;;;;;;;16.20;100.00;102597.56;4988487;28;20129;-69
2022/07/10 08:39:17;;;;;;;9.80;3.40;;;;;;;16.49;100.00;102593.13;4994740;28;20485;-69
2022/07/10 08:41:45;;;;;;;6.72;2.72;;;;;;;16.70;100.00;102587.41;4996267;28;20038;-69
2022/07/10 08:44:11;;;;;;;8.85;2.83;;;;;;;16.59;100.00;102588.06;4998517;28;20050;-69
2022/07/10 08:46:37;;;;;;;11.90;3.30;;;;;;;16.72;100.00;102591.78;4990966;28;20125;-70
2022/07/10 08:49:08;;;;;;;7.97;3.10;;;;;;;16.85;100.00;102588.31;5001193;28;20042;-69
2022/07/10 08:51:40;;;;;;;7.95;3.25;;;;;;;16.98;100.00;102590.16;4997691;28;20037;-69
2022/07/10 08:54:09;;;;;;;10.10;2.92;;;;;;;16.54;100.00;102582.97;5003376;28;20053;-67
2022/07/10 08:56:36;;;;;;;6.00;2.83;;;;;;;16.43;100.00;102587.28;4988444;28;20172;-68
2022/07/10 08:59:05;;;;;;;3.70;2.60;;;;;;;16.06;100.00;102584.03;4996757;28;20508;-70
2022/07/10 09:01:33;;;;;;;6.97;2.97;;;;;;;16.16;100.00;102581.69;4998628;28;20865;-68
2022/07/10 09:04:05;;;;;;;10.38;3.33;;;;;;;16.34;100.00;102588.69;4991682;28;20111;-68
2022/07/10 09:06:30;;;;;;;6.03;3.28;;;;;;;16.27;100.00;102584.63;4999106;28;20072;-69
2022/07/10 09:09:05;;;;;;;9.23;3.03;;;;;;;16.43;100.00;102587.28;4998345;28;20084;-70
2022/07/10 09:11:32;;;;;;;13.50;3.60;;;;;;;16.79;100.00;102582.34;5000913;28;20033;-70
2022/07/10 09:14:00;;;;;;;11.82;3.65;;;;;;;17.07;99.59;102570.72;5000542;28;20032;-69
2022/07/10 09:16:33;;;;;;;9.20;3.10;;;;;;;17.78;96.38;102572.47;4999429;28;20037;-69
2022/07/10 09:19:22;;;;;;;8.43;2.85;;;;;;;17.75;93.43;102567.25;4997757;28;20066;-69
2022/07/10 09:21:55;;;;;;;8.35;3.63;;;;;;;18.60;90.99;102560.53;5000897;28;20052;-70
2022/07/10 09:24:24;;;;;;;6.93;2.75;;;;;;;19.06;88.83;102559.16;4996927;28;20049;-69
2022/07/10 09:26:56;;;;;;;8.35;2.40;;;;;;;18.35;88.79;102560.53;4999049;28;20037;-68
2022/07/10 09:29:21;;;;;;;7.07;2.73;;;;;;;18.14;89.47;102562.84;4997859;28;20046;-69
2022/07/10 09:31:54;;;;;;;6.75;1.90;;;;;;;18.52;88.34;102562.03;4985954;28;20486;-70
2022/07/10 09:34:36;;;;;;;10.65;2.88;;;;;;;18.84;88.00;102557.13;4988579;28;20052;-67
2022/07/10 09:37:16;;;;;;;;;;;;;;;19.04;87.63;102555.72;4987545;28;20053;-68
2022/07/10 09:39:52;;;;;;;11.05;2.33;;;;;;;19.57;84.97;102540.09;5000917;28;19917;-69
2022/07/10 09:42:31;;;;;;;8.88;2.25;;;;;;;19.67;84.20;102542.00;4975229;28;20042;-68
2022/07/10 09:45:12;;;;;;;8.90;2.03;;;;;;;19.41;84.94;102545.78;4990241;28;20078;-68
2022/07/10 09:48:00;;;;;;;5.85;2.72;;;;;;;19.07;84.34;102537.41;4992046;28;20043;-68
2022/07/10 09:50:33;;;;;;;6.85;2.30;;;;;;;19.16;86.59;102541.28;5000897;28;20045;-68
2022/07/10 09:53:00;;;;;;;9.05;2.63;;;;;;;19.08;82.88;102544.56;4989799;28;20050;-69
2022/07/10 09:55:29;;;;;;;4.18;2.03;;;;;;;19.12;82.98;102540.63;4993277;28;20033;-69
2022/07/10 09:58:05;;;;;;;7.95;2.25;;;;;;;19.40;82.80;102539.50;4998796;28;20029;-68
2022/07/10 10:00:33;;;;;;;6.35;2.22;;;;;;;19.50;79.73;102542.38;4993594;28;20176;-68
2022/07/10 10:03:04;;;;;;;7.35;2.08;;;;;;;19.39;76.89;102536.91;5002281;28;20065;-70
2022/07/10 10:05:43;;;;;;;6.80;2.17;;;;;;;19.76;78.15;102545.03;4998056;28;20046;-69
2022/07/10 10:08:19;;;;;;;9.07;2.42;;;;;;;19.55;78.30;102533.94;5005510;28;20588;-69
2022/07/10 10:10:49;;;;;;;6.43;2.20;;;;;;;19.46;80.09;102540.88;5002580;28;20041;-69
2022/07/10 10:13:20;;;;;;;5.72;1.70;;;;;;;19.58;78.81;102533.72;4994875;28;20045;-69
2022/07/10 10:15:47;;;;;;;3.78;2.20;;;;;;;19.33;78.34;102540.06;5000824;28;20140;-69
2022/07/10 10:18:14;;;;;;;3.50;1.75;;;;;;;19.40;77.23;102536.78;4996602;28;20038;-70
2022/07/10 10:20:45;;;;;;;4.95;1.80;;;;;;;20.08;74.58;102537.16;5003928;28;20815;-69
2022/07/10 10:23:17;;;;;;;5.45;2.30;;;;;;;20.69;75.59;102533.28;5006973;28;20045;-68
2022/07/10 10:25:46;;;;;;;3.85;1.65;;;;;;;20.47;73.62;102527.81;4996634;28;20049;-69
2022/07/10 10:28:13;;;;;;;4.03;1.45;;;;;;;20.54;71.88;102526.38;5004002;28;20508;-70
2022/07/10 10:30:45;;;;;;;4.47;1.90;;;;;;;20.72;72.62;102517.75;5003370;28;20050;-68
2022/07/10 10:33:32;;;;;;;3.28;1.90;;;;;;;21.48;71.25;102507.97;5002937;28;20944;-69
2022/07/10 10:35:59;;;;;;;1.95;1.27;;;;;;;20.51;70.98;102518.47;5002218;28;20038;-69
2022/07/10 10:38:24;;;;;;;4.72;1.60;;;;;;;20.39;71.96;102512.16;5004398;28;20037;-69
2022/07/10 10:40:50;;;;;;;3.58;1.48;;;;;;;20.06;74.85;102514.75;5007281;28;20072;-69
2022/07/10 10:43:25;;;;;;;5.90;2.15;;;;;;;19.64;76.10;102517.91;5009062;28;20060;-70
2022/07/10 10:45:51;;;;;;;5.30;1.90;;;;;;;19.48;79.82;102514.59;5002274;28;20034;-68
2022/07/10 10:48:20;;;;;;;8.15;2.10;;;;;;;19.30;78.72;102519.50;5002795;28;20096;-69
2022/07/10 10:50:49;;;;;;;5.28;1.88;;;;;;;19.71;75.70;102520.16;5000648;28;20038;-69
2022/07/10 10:53:17;;;;;;;8.10;2.13;;;;;;;19.46;75.10;102518.38;4990841;28;20057;-68
2022/07/10 10:56:04;;;;;;;5.03;2.13;;;;;;;19.39;75.75;102523.38;5002423;28;20087;-68
2022/07/10 10:58:46;;;;;;;5.13;2.42;;;;;;;19.45;75.50;102530.19;4992149;28;20137;-69
2022/07/10 11:01:21;;;;;;;6.32;1.90;;;;;;;19.75;75.45;102530.63;4993370;28;20046;-68
2022/07/10 11:04:04;;;;;;;6.30;1.80;;;;;;;19.87;78.29;102526.13;5002579;28;20042;-69
2022/07/10 11:06:53;;;;;;;13.05;1.90;;;;;;;19.72;75.00;102524.56;4983020;28;20062;-69
2022/07/10 11:09:32;;;;;;;3.10;1.38;;;;;;;19.86;74.92;102525.25;5000108;28;20115;-68
2022/07/10 11:12:05;;;;;;;3.78;1.80;;;;;;;20.10;75.38;102524.38;4989236;28;20041;-68
2022/07/10 11:14:40;;;;;;;6.30;1.52;;;;;;;20.47;76.50;102516.13;4988583;28;20695;-69
2022/07/10 11:17:06;;;;;;;6.70;1.90;;;;;;;20.76;73.02;102520.09;4996975;28;20041;-68
2022/07/10 11:19:33;;;;;;;4.47;1.60;;;;;;;20.53;72.19;102516.47;4990701;28;20045;-68
2022/07/10 11:22:18;;;;;;;2.97;1.63;;;;;;;20.64;70.34;102513.81;4998001;28;20443;-68
2022/07/10 11:24:58;;;;;;;4.22;1.40;;;;;;;20.96;72.47;102515.78;4992048;28;20109;-68
2022/07/10 11:27:47;;;;;;;2.70;1.63;;;;;;;21.03;69.79;102505.28;5001845;28;20071;-68
2022/07/10 11:30:12;;;;;;;6.28;1.60;;;;;;;21.42;67.37;102491.19;4990735;28;20050;-68
2022/07/10 11:32:38;;;;;;;5.80;1.67;;;;;;;21.64;70.77;102494.84;4989638;28;20064;-68
2022/07/10 11:35:10;;;;;;;3.75;2.00;;;;;;;22.06;65.50;102503.06;4998048;28;20050;-68